Time;durP1;ratioP1;P1;durP2;ratioP2;P2;SDS_P1;SDS_P2;PMS_P1;PMS_P2;Temp;Humidity;BMP_temperature;BMP_pressure;BME280_temperature;BME280_humidity;BME280_pressure;Samples;Min_cycle;Max_cycle;Signal;HPM_P1;HPM_P2
2022/11/26 00:01:41;;;;;;;109.47;58.90;;;;;;;2.79;92.85;99378.11;2279985;78;20890;-82
2022/11/26 00:04:42;;;;;;;107.73;58.50;;;;;;;2.78;92.83;99382.39;2279853;78;20966;-82
2022/11/26 00:07:42;;;;;;;109.07;58.07;;;;;;;2.80;92.81;99383.75;2280208;78;20887;-81
2022/11/26 00:10:42;;;;;;;111.37;58.23;;;;;;;2.80;92.76;99378.59;2279875;78;20902;-83
2022/11/26 00:13:43;;;;;;;118.03;59.23;;;;;;;2.82;92.62;99383.43;2279607;78;20938;-81
2022/11/26 00:16:43;;;;;;;108.33;56.57;;;;;;;2.83;92.72;99387.38;2279573;78;20957;-82
2022/11/26 00:19:44;;;;;;;108.93;56.20;;;;;;;2.84;92.55;99386.97;2279906;78;20906;-81
2022/11/26 00:22:44;;;;;;;105.27;55.63;;;;;;;2.81;92.48;99394.14;2280011;78;21326;-81
2022/11/26 00:25:45;;;;;;;108.80;57.10;;;;;;;2.77;92.43;99395.20;2279831;78;20915;-81
2022/11/26 00:28:45;;;;;;;107.80;56.60;;;;;;;2.76;92.44;99399.87;2279945;78;20899;-82
2022/11/26 00:31:45;;;;;;;106.00;57.70;;;;;;;2.77;92.57;99401.23;2280099;78;20906;-81
2022/11/26 00:34:46;;;;;;;103.90;55.80;;;;;;;2.77;92.51;99405.11;2279563;78;21338;-82
2022/11/26 00:37:46;;;;;;;103.10;57.03;;;;;;;2.76;92.76;99411.07;2280022;78;20895;-82
2022/11/26 00:40:46;;;;;;;108.47;57.80;;;;;;;2.77;92.76;99419.29;2280294;78;20898;-82
2022/11/26 00:43:47;;;;;;;103.23;56.60;;;;;;;2.78;92.73;99410.75;2280398;78;20902;-82
2022/11/26 00:46:47;;;;;;;111.03;57.87;;;;;;;2.76;92.42;99411.07;2280330;78;20875;-82
2022/11/26 00:49:48;;;;;;;104.90;54.83;;;;;;;2.77;92.53;99419.69;2279902;78;20902;-82
2022/11/26 00:52:48;;;;;;;108.13;55.60;;;;;;;2.80;92.61;99410.83;2279922;78;20894;-83
2022/11/26 00:55:49;;;;;;;94.87;53.10;;;;;;;2.84;92.37;99412.75;2280141;78;20930;-83
2022/11/26 00:58:49;;;;;;;101.97;54.17;;;;;;;2.84;92.18;99420.48;2280098;78;21361;-82
2022/11/26 01:01:49;;;;;;;101.50;54.57;;;;;;;2.83;92.50;99417.02;2279989;78;21267;-82
2022/11/26 01:04:50;;;;;;;107.17;55.63;;;;;;;2.88;92.46;99422.41;2279535;78;21140;-82
2022/11/26 01:07:50;;;;;;;98.17;51.63;;;;;;;2.92;92.37;99428.61;2280114;78;20903;-83
2022/11/26 01:10:51;;;;;;;105.60;54.73;;;;;;;2.92;92.17;99428.61;2280096;78;20910;-83
2022/11/26 01:13:51;;;;;;;97.73;54.33;;;;;;;2.91;92.10;99427.73;2279713;78;20875;-82
2022/11/26 01:16:51;;;;;;;97.20;53.97;;;;;;;2.94;92.18;99421.84;2279747;78;20947;-82
2022/11/26 01:19:52;;;;;;;101.67;52.13;;;;;;;2.94;91.96;99430.47;2280031;78;20906;-83
2022/11/26 01:22:52;;;;;;;94.87;50.97;;;;;;;2.95;91.77;99430.95;2279952;78;20895;-82
2022/11/26 01:25:53;;;;;;;98.47;53.13;;;;;;;2.93;91.57;99424.83;2279733;78;20926;-83
2022/11/26 01:28:53;;;;;;;89.90;49.10;;;;;;;2.93;91.63;99432.56;2280024;78;20934;-82
2022/11/26 01:31:53;;;;;;;91.13;50.93;;;;;;;2.95;91.64;99432.23;2279758;78;20903;-82
2022/11/26 01:34:54;;;;;;;97.20;50.73;;;;;;;2.95;91.39;99427.48;2279574;78;20931;-82
2022/11/26 01:37:54;;;;;;;95.60;51.67;;;;;;;2.95;91.14;99433.92;2280067;78;21251;-83
2022/11/26 01:40:55;;;;;;;89.47;49.20;;;;;;;2.91;91.08;99429.02;2279534;78;20890;-82
2022/11/26 01:43:55;;;;;;;93.10;48.77;;;;;;;2.89;91.14;99426.77;2279234;78;20907;-82
2022/11/26 01:46:56;;;;;;;97.20;49.40;;;;;;;2.89;91.26;99429.34;2279624;78;20907;-81
2022/11/26 01:49:56;;;;;;;91.37;48.40;;;;;;;2.88;91.09;99431.44;2279863;78;20899;-82
2022/11/26 01:52:56;;;;;;;93.00;49.37;;;;;;;2.85;91.13;99440.30;2279579;78;21277;-83
2022/11/26 01:55:57;;;;;;;91.83;49.10;;;;;;;2.88;91.39;99435.30;2279570;78;20906;-82
2022/11/26 01:58:57;;;;;;;85.80;47.43;;;;;;;2.87;91.07;99429.67;2279855;78;20875;-83
2022/11/26 02:01:58;;;;;;;88.93;47.83;;;;;;;2.82;90.90;99435.88;2279970;78;20891;-81
2022/11/26 02:04:58;;;;;;;89.47;48.83;;;;;;;2.82;90.91;99434.99;2279785;78;20934;-81
2022/11/26 02:07:58;;;;;;;90.37;47.93;;;;;;;2.79;90.96;99427.98;2279862;78;21294;-81
2022/11/26 02:10:59;;;;;;;94.87;48.73;;;;;;;2.78;90.84;99431.38;2279783;78;20895;-82
2022/11/26 02:13:59;;;;;;;83.77;46.40;;;;;;;2.76;90.77;99430.81;2280055;78;20934;-82
2022/11/26 02:17:00;;;;;;;95.03;47.20;;;;;;;2.75;90.72;99431.22;2279933;77;20978;-81
2022/11/26 02:20:00;;;;;;;91.10;47.23;;;;;;;2.73;90.73;99439.67;2280027;78;20911;-80
2022/11/26 02:23:00;;;;;;;79.70;44.47;;;;;;;2.73;91.01;99433.23;2280339;78;20887;-81
2022/11/26 02:26:01;;;;;;;82.17;46.50;;;;;;;2.73;90.80;99439.27;2279628;78;20915;-81
2022/11/26 02:29:01;;;;;;;83.33;46.60;;;;;;;2.72;90.73;99445.64;2280020;78;20934;-81
2022/11/26 02:32:02;;;;;;;86.03;44.23;;;;;;;2.70;90.72;99443.38;2279818;78;20875;-81
2022/11/26 02:35:02;;;;;;;86.50;47.87;;;;;;;2.71;90.61;99447.73;2279638;78;21334;-80
2022/11/26 02:38:02;;;;;;;86.87;48.50;;;;;;;2.67;90.62;99441.94;2279824;78;20879;-81
2022/11/26 02:41:03;;;;;;;87.57;45.80;;;;;;;2.68;90.79;99442.41;2279958;78;20926;-80
2022/11/26 02:44:03;;;;;;;85.70;46.30;;;;;;;2.68;90.83;99437.27;2280325;78;20951;-80
2022/11/26 02:47:04;;;;;;;85.57;44.93;;;;;;;2.69;90.80;99445.48;2280380;78;20933;-81
2022/11/26 02:50:04;;;;;;;85.83;44.10;;;;;;;2.68;90.58;99446.28;2279621;78;20967;-80
2022/11/26 02:53:04;;;;;;;91.03;46.43;;;;;;;2.68;90.58;99446.28;2280105;78;20867;-81
2022/11/26 02:56:05;;;;;;;87.43;45.90;;;;;;;2.63;90.80;99438.31;2280255;78;21125;-80
2022/11/26 02:59:05;;;;;;;85.40;46.77;;;;;;;2.63;90.80;99438.31;2279944;78;20867;-80
2022/11/26 03:02:06;;;;;;;84.43;46.23;;;;;;;2.67;90.94;99445.80;2280050;78;20899;-81
2022/11/26 03:05:06;;;;;;;83.83;45.47;;;;;;;2.65;90.74;99438.39;2279893;78;21058;-80
2022/11/26 03:08:07;;;;;;;83.00;45.60;;;;;;;2.65;90.92;99441.86;2279845;78;20923;-81
2022/11/26 03:11:07;;;;;;;84.20;45.10;;;;;;;2.67;90.96;99447.09;2279694;78;20903;-80
2022/11/26 03:14:07;;;;;;;86.13;47.00;;;;;;;2.69;91.19;99445.48;2279488;78;20934;-80
2022/11/26 03:17:08;;;;;;;88.20;46.90;;;;;;;2.71;90.97;99445.16;2278645;78;20958;-80
2022/11/26 03:20:08;;;;;;;83.90;46.43;;;;;;;2.69;90.92;99449.34;2276269;78;20891;-80
2022/11/26 03:23:09;;;;;;;82.30;44.07;;;;;;;2.69;90.94;99451.92;2275858;78;21295;-80
2022/11/26 03:26:09;;;;;;;78.73;43.77;;;;;;;2.67;90.80;99452.24;2275774;78;20855;-80
2022/11/26 03:29:09;;;;;;;80.63;44.03;;;;;;;2.66;90.77;99452.64;2276224;78;20907;-80
2022/11/26 03:32:10;;;;;;;78.77;43.47;;;;;;;2.66;90.80;99456.91;2276235;78;21310;-80
2022/11/26 03:35:10;;;;;;;77.27;44.23;;;;;;;2.65;90.73;99452.56;2275922;78;21014;-80
2022/11/26 03:38:11;;;;;;;73.13;42.83;;;;;;;2.65;90.80;99454.74;2276328;78;20889;-81
2022/11/26 03:41:11;;;;;;;88.97;45.77;;;;;;;2.66;91.18;99447.48;2276425;78;20950;-80
2022/11/26 03:44:11;;;;;;;79.37;43.83;;;;;;;2.66;91.18;99447.48;2276461;78;21259;-80
2022/11/26 03:47:12;;;;;;;75.33;42.97;;;;;;;2.68;90.79;99449.75;2276647;78;20906;-80
2022/11/26 03:50:12;;;;;;;79.33;43.00;;;;;;;2.65;90.76;99446.13;2276995;78;20894;-80
2022/11/26 03:53:13;;;;;;;77.67;43.00;;;;;;;2.62;90.65;99435.25;2276464;78;20923;-80
2022/11/26 03:56:14;;;;;;;78.63;43.67;;;;;;;2.58;90.85;99430.70;2276189;78;20910;-80
2022/11/26 03:59:13;;;;;;;86.27;47.77;;;;;;;2.56;91.50;99438.77;2276123;78;21132;-80
2022/11/26 04:02:14;;;;;;;101.20;56.17;;;;;;;2.62;92.64;99449.83;2275553;78;20898;-80
2022/11/26 04:05:14;;;;;;;99.27;53.30;;;;;;;2.68;93.63;99465.21;2275955;78;20972;-80
2022/11/26 04:08:15;;;;;;;94.97;52.33;;;;;;;2.75;93.90;99476.73;2276132;78;20903;-80
2022/11/26 04:11:15;;;;;;;78.00;43.33;;;;;;;2.82;94.20;99470.69;2276111;78;20903;-80
2022/11/26 04:14:15;;;;;;;84.40;47.20;;;;;;;2.88;93.23;99473.98;2276138;78;20871;-80
2022/11/26 04:17:16;;;;;;;87.50;45.77;;;;;;;2.87;92.79;99479.95;2274278;78;21317;-80
2022/11/26 04:20:16;;;;;;;79.20;46.07;;;;;;;2.87;92.58;99471.81;2279448;78;20997;-82
2022/11/26 04:23:17;;;;;;;83.47;46.83;;;;;;;2.84;92.09;99474.63;2279252;78;20930;-80
2022/11/26 04:26:17;;;;;;;81.13;45.33;;;;;;;2.78;91.83;99486.80;2279203;78;20906;-80
2022/11/26 04:29:18;;;;;;;78.57;44.70;;;;;;;2.77;92.48;99487.61;2279293;78;20879;-81
2022/11/26 04:32:18;;;;;;;75.40;44.17;;;;;;;2.80;92.29;99484.30;2279652;78;20879;-80
2022/11/26 04:35:18;;;;;;;78.13;42.70;;;;;;;2.78;91.75;99488.50;2279813;78;20988;-80
2022/11/26 04:38:19;;;;;;;73.93;40.90;;;;;;;2.74;91.75;99489.14;2279739;78;20895;-80
2022/11/26 04:41:19;;;;;;;75.40;40.80;;;;;;;2.97;95.88;99500.25;2278460;78;21329;-81
2022/11/26 04:44:20;;;;;;;71.63;43.10;;;;;;;3.13;95.04;99506.68;2279455;78;21275;-81
2022/11/26 04:47:20;;;;;;;76.27;41.07;;;;;;;3.09;92.20;99511.61;2279415;78;20903;-79
2022/11/26 04:50:21;;;;;;;66.00;39.57;;;;;;;3.13;92.08;99507.97;2278585;78;20899;-80
2022/11/26 04:53:21;;;;;;;72.80;39.73;;;;;;;3.06;91.42;99508.87;2278604;78;20931;-79
2022/11/26 04:56:21;;;;;;;70.33;37.60;;;;;;;2.98;91.05;99507.18;2278360;78;20966;-79
2022/11/26 04:59:22;;;;;;;66.77;38.23;;;;;;;2.92;90.96;99516.29;2279540;78;20913;-80
2022/11/26 05:02:22;;;;;;;68.47;37.83;;;;;;;2.87;90.87;99512.18;2279435;78;20871;-80
2022/11/26 05:05:23;;;;;;;80.73;44.43;;;;;;;2.80;90.92;99530.31;2279362;78;21353;-79
2022/11/26 05:08:23;;;;;;;87.47;48.53;;;;;;;2.71;90.94;99531.52;2279627;78;20946;-80
2022/11/26 05:11:23;;;;;;;72.57;38.93;;;;;;;2.73;91.23;99528.61;2280135;78;20938;-80
2022/11/26 05:14:24;;;;;;;74.43;39.90;;;;;;;2.70;91.13;99531.91;2279554;78;21635;-80
2022/11/26 05:17:24;;;;;;;71.47;40.03;;;;;;;2.67;91.25;99542.46;2279597;78;20958;-81
2022/11/26 05:20:25;;;;;;;74.50;40.27;;;;;;;2.67;91.33;99539.48;2278625;78;20938;-82
2022/11/26 05:23:25;;;;;;;82.57;41.70;;;;;;;2.70;91.40;99543.92;2278345;78;20946;-80
2022/11/26 05:26:26;;;;;;;77.93;42.17;;;;;;;2.71;91.47;99536.67;2278793;78;20871;-81
2022/11/26 05:29:26;;;;;;;87.33;45.23;;;;;;;2.71;91.48;99542.71;2278191;78;20994;-81
2022/11/26 05:32:26;;;;;;;74.27;40.83;;;;;;;2.69;91.42;99553.74;2278768;78;20949;-81
2022/11/26 05:35:27;;;;;;;74.90;39.37;;;;;;;2.71;91.41;99540.13;2278778;78;20997;-80
2022/11/26 05:38:27;;;;;;;77.53;42.17;;;;;;;2.68;91.23;99558.02;2278843;78;20875;-81
2022/11/26 05:41:27;;;;;;;68.50;40.00;;;;;;;2.66;91.80;99557.05;2279007;78;20874;-79
2022/11/26 05:44:28;;;;;;;70.77;39.90;;;;;;;2.71;91.67;99560.75;2279420;78;20879;-81
2022/11/26 05:47:28;;;;;;;80.00;43.00;;;;;;;2.71;91.74;99556.89;2279072;78;20898;-83
2022/11/26 05:50:29;;;;;;;63.57;37.70;;;;;;;2.72;91.52;99562.53;2279293;78;20934;-82
2022/11/26 05:53:29;;;;;;;64.27;39.07;;;;;;;2.73;91.52;99562.12;2279432;78;20875;-81
2022/11/26 05:56:30;;;;;;;105.47;63.77;;;;;;;2.72;91.31;99566.40;2278726;78;21330;-79
2022/11/26 05:59:30;;;;;;;73.30;40.20;;;;;;;2.72;91.67;99568.97;2278674;78;20914;-78
2022/11/26 06:02:30;;;;;;;67.13;38.53;;;;;;;2.74;91.33;99561.32;2278541;78;20882;-78
2022/11/26 06:05:31;;;;;;;67.27;39.47;;;;;;;2.74;91.29;99569.06;2279165;78;20986;-78
2022/11/26 06:08:31;;;;;;;64.43;37.50;;;;;;;2.73;91.49;99568.57;2279177;78;20903;-79
2022/11/26 06:11:32;;;;;;;66.27;38.23;;;;;;;2.76;91.40;99568.73;2279799;78;20911;-79
2022/11/26 06:14:32;;;;;;;70.57;39.60;;;;;;;2.76;91.21;99578.65;2279531;78;20994;-79
2022/11/26 06:17:34;;;;;;;69.17;38.93;;;;;;;2.76;91.17;99582.91;2279407;78;20903;-79
2022/11/26 06:20:35;;;;;;;71.43;40.07;;;;;;;2.78;91.12;99582.59;2277801;78;20981;-79
2022/11/26 06:23:35;;;;;;;78.33;41.80;;;;;;;2.79;91.07;99587.84;2275146;78;21383;-79
2022/11/26 06:26:36;;;;;;;68.53;39.03;;;;;;;2.80;91.12;99584.86;2275026;78;20922;-79
2022/11/26 06:29:36;;;;;;;63.13;37.43;;;;;;;2.78;90.80;99583.89;2274843;78;21582;-80
2022/11/26 06:32:36;;;;;;;76.80;38.80;;;;;;;2.73;90.85;99586.62;2275105;78;21009;-79
2022/11/26 06:35:37;;;;;;;64.83;36.80;;;;;;;2.74;91.26;99587.10;2274965;78;20993;-80
2022/11/26 06:38:37;;;;;;;64.97;38.23;;;;;;;2.75;91.17;99586.30;2275368;78;20986;-80
2022/11/26 06:41:38;;;;;;;71.07;38.60;;;;;;;2.78;91.35;99587.35;2275657;78;21263;-80
2022/11/26 06:44:41;;;;;;;61.47;36.37;;;;;;;2.82;91.22;99589.69;2275005;78;21056;-79
2022/11/26 06:47:41;;;;;;;65.57;37.40;;;;;;;2.85;91.29;99588.56;2275978;78;20899;-79
2022/11/26 06:50:42;;;;;;;67.07;38.30;;;;;;;2.95;91.02;99593.41;2275460;78;21275;-79
2022/11/26 06:53:42;;;;;;;59.13;35.80;;;;;;;2.95;91.02;99593.41;2276206;78;20903;-79
2022/11/26 06:56:43;;;;;;;60.87;35.27;;;;;;;2.98;90.88;99584.55;2274697;78;20942;-79
2022/11/26 06:59:43;;;;;;;61.53;34.67;;;;;;;3.03;90.81;99584.80;2274624;78;20899;-79
2022/11/26 07:02:43;;;;;;;62.87;36.87;;;;;;;3.01;90.67;99593.74;2274980;78;20887;-78
2022/11/26 07:05:44;;;;;;;64.67;37.13;;;;;;;3.04;90.67;99599.47;2274136;78;21411;-78
2022/11/26 07:08:44;;;;;;;62.10;34.87;;;;;;;3.07;90.65;99597.05;2274589;78;20938;-78
2022/11/26 07:11:45;;;;;;;58.93;35.27;;;;;;;3.12;90.67;99603.34;2274911;78;20918;-78
2022/11/26 07:14:45;;;;;;;65.43;36.07;;;;;;;3.15;90.65;99618.98;2275135;78;20973;-79
2022/11/26 07:17:45;;;;;;;60.07;36.33;;;;;;;3.20;90.84;99618.42;2274904;78;21263;-79
2022/11/26 07:20:46;;;;;;;60.77;38.33;;;;;;;3.24;90.51;99622.05;2274148;78;20910;-79
2022/11/26 07:23:46;;;;;;;60.93;36.00;;;;;;;3.30;90.96;99626.24;2274138;78;20950;-80
2022/11/26 07:26:47;;;;;;;61.67;36.33;;;;;;;3.39;91.01;99631.89;2274076;78;20895;-79
2022/11/26 07:29:47;;;;;;;65.43;36.90;;;;;;;3.48;90.98;99636.67;2274108;78;20879;-79
2022/11/26 07:32:48;;;;;;;67.23;37.20;;;;;;;3.55;91.09;99643.93;2274633;78;20879;-79
2022/11/26 07:35:48;;;;;;;63.03;37.50;;;;;;;3.64;90.99;99639.24;2274871;78;21129;-79
2022/11/26 07:38:48;;;;;;;70.03;41.73;;;;;;;3.72;91.09;99635.77;2274534;78;20950;-79
2022/11/26 07:41:49;;;;;;;72.60;43.60;;;;;;;3.77;91.17;99632.61;2274577;78;20903;-78
2022/11/26 07:44:49;;;;;;;130.50;76.97;;;;;;;3.89;91.91;99619.42;2275109;78;20934;-79
2022/11/26 07:47:50;;;;;;;72.03;45.13;;;;;;;4.03;92.08;99615.84;2275055;78;20879;-78
2022/11/26 07:50:50;;;;;;;95.00;53.57;;;;;;;4.13;91.69;99619.36;2274470;78;20903;-79
2022/11/26 07:53:51;;;;;;;91.27;53.17;;;;;;;4.23;92.14;99633.61;2274042;78;20907;-79
2022/11/26 07:56:51;;;;;;;93.23;51.30;;;;;;;4.27;91.88;99642.00;2273760;78;20938;-78
2022/11/26 07:59:51;;;;;;;85.53;50.40;;;;;;;4.39;92.26;99640.45;2273586;78;20961;-79
2022/11/26 08:02:52;;;;;;;86.03;51.47;;;;;;;4.52;92.00;99641.94;2273859;78;20915;-79
2022/11/26 08:05:52;;;;;;;84.30;52.47;;;;;;;4.65;91.92;99631.36;2273520;78;21009;-79
2022/11/26 08:08:53;;;;;;;90.47;53.63;;;;;;;4.70;91.46;99641.52;2274410;78;20915;-79
2022/11/26 08:11:53;;;;;;;88.03;50.13;;;;;;;4.78;91.54;99642.77;2274566;78;20962;-79
2022/11/26 08:14:54;;;;;;;91.17;54.67;;;;;;;4.83;91.22;99645.57;2274902;78;20943;-79
2022/11/26 08:17:54;;;;;;;95.47;53.87;;;;;;;4.87;91.35;99653.95;2275146;78;20907;-79
2022/11/26 08:20:55;;;;;;;98.13;53.17;;;;;;;4.95;91.31;99656.50;2274680;78;20990;-79
2022/11/26 08:23:55;;;;;;;92.20;52.30;;;;;;;5.02;90.88;99658.14;2275276;78;20943;-79
2022/11/26 08:26:58;;;;;;;94.57;51.47;;;;;;;5.04;90.76;99658.22;2274544;78;20930;-79
2022/11/26 08:29:56;;;;;;;95.07;54.77;;;;;;;5.11;90.76;99664.16;2275098;78;20907;-79
2022/11/26 08:32:56;;;;;;;88.17;52.67;;;;;;;5.17;90.57;99664.84;2275021;78;20907;-79
2022/11/26 08:35:56;;;;;;;91.77;49.33;;;;;;;5.20;90.41;99660.73;2274747;78;20982;-78
2022/11/26 08:38:57;;;;;;;90.67;52.13;;;;;;;5.26;90.04;99666.19;2274557;78;20934;-79
2022/11/26 08:41:57;;;;;;;86.27;48.00;;;;;;;5.28;89.95;99660.67;2274993;78;20915;-79
2022/11/26 08:44:58;;;;;;;92.10;49.47;;;;;;;5.35;89.96;99665.31;2274789;78;21300;-79
2022/11/26 08:47:58;;;;;;;81.40;46.80;;;;;;;5.49;90.09;99671.52;2275017;78;20903;-78
2022/11/26 08:50:59;;;;;;;78.13;46.80;;;;;;;5.57;89.74;99667.56;2274789;78;20950;-78
2022/11/26 08:53:59;;;;;;;75.33;47.17;;;;;;;5.65;89.40;99673.97;2274507;78;21358;-78
2022/11/26 08:56:59;;;;;;;74.50;45.77;;;;;;;5.67;88.90;99667.16;2274889;78;20962;-78
2022/11/26 09:00:00;;;;;;;74.20;45.33;;;;;;;5.72;88.87;99671.72;2275107;78;20910;-79
2022/11/26 09:03:00;;;;;;;67.63;40.77;;;;;;;5.79;88.67;99675.88;2275311;78;21331;-79
2022/11/26 09:06:00;;;;;;;69.80;41.37;;;;;;;5.85;88.37;99673.55;2275332;78;20986;-79
2022/11/26 09:09:13;;;;;;;68.77;43.10;;;;;;;5.87;87.82;99677.09;2276274;78;20910;-78
2022/11/26 09:12:13;;;;;;;61.97;39.73;;;;;;;5.88;87.91;99669.80;2276085;78;20903;-78
2022/11/26 09:15:14;;;;;;;65.23;40.23;;;;;;;5.97;87.59;99678.89;2275881;78;20927;-80
2022/11/26 09:18:14;;;;;;;72.40;43.37;;;;;;;6.04;87.40;99679.63;2275400;78;20879;-78
2022/11/26 09:21:15;;;;;;;72.03;43.50;;;;;;;6.08;87.07;99684.97;2275031;78;20947;-80
2022/11/26 09:24:16;;;;;;;70.10;43.57;;;;;;;6.04;86.53;99689.99;2275350;78;20906;-79
2022/11/26 09:27:16;;;;;;;88.33;45.50;;;;;;;6.10;87.03;99694.59;2275350;78;20938;-79
2022/11/26 09:30:17;;;;;;;75.80;46.73;;;;;;;6.18;86.60;99698.39;2274980;78;20942;-79
2022/11/26 09:33:16;;;;;;;83.87;49.97;;;;;;;6.25;86.93;99699.13;2274735;78;20915;-79
2022/11/26 09:36:17;;;;;;;78.23;47.23;;;;;;;6.33;86.58;99709.41;2274380;78;21009;-79
2022/11/26 09:39:17;;;;;;;83.07;53.47;;;;;;;6.45;86.56;99707.74;2274424;78;21322;-79
2022/11/26 09:42:20;;;;;;;75.77;48.60;;;;;;;6.51;86.49;99708.00;2274123;78;20961;-79
2022/11/26 09:45:18;;;;;;;77.63;45.60;;;;;;;6.67;86.34;99696.55;2274141;78;20966;-79
2022/11/26 09:48:18;;;;;;;80.17;49.60;;;;;;;6.77;85.74;99702.98;2274261;78;20915;-79
2022/11/26 09:51:19;;;;;;;86.23;51.80;;;;;;;6.78;85.23;99711.25;2273895;78;21330;-79
2022/11/26 09:54:19;;;;;;;81.80;48.27;;;;;;;6.66;84.82;99706.45;2274445;78;20943;-79
2022/11/26 09:57:20;;;;;;;78.17;47.80;;;;;;;6.56;85.11;99709.48;2274584;78;20946;-79
2022/11/26 10:00:20;;;;;;;87.77;46.03;;;;;;;6.55;85.58;99707.72;2275354;78;20907;-79
2022/11/26 10:03:20;;;;;;;91.63;49.50;;;;;;;6.57;85.66;99703.06;2275263;78;20911;-79
2022/11/26 10:06:21;;;;;;;78.03;47.97;;;;;;;6.60;85.41;99706.20;2274315;78;21004;-79
2022/11/26 10:09:21;;;;;;;99.87;60.20;;;;;;;6.54;85.15;99703.34;2274870;78;20942;-79
2022/11/26 10:12:22;;;;;;;101.77;63.00;;;;;;;6.43;85.44;99709.80;2275009;78;20946;-79
2022/11/26 10:15:23;;;;;;;97.33;58.33;;;;;;;6.35;86.27;99710.77;2274313;78;20922;-79
2022/11/26 10:18:22;;;;;;;93.13;57.83;;;;;;;6.27;86.11;99713.45;2274599;78;20954;-78
2022/11/26 10:21:23;;;;;;;96.47;58.17;;;;;;;6.18;86.20;99713.95;2276382;78;21582;-80
2022/11/26 10:24:23;;;;;;;92.63;53.97;;;;;;;6.17;86.39;99720.36;2278984;78;20957;-80
2022/11/26 10:27:25;;;;;;;84.63;52.47;;;;;;;6.18;86.46;99724.31;2278552;78;20931;-80
2022/11/26 10:30:24;;;;;;;85.83;52.60;;;;;;;6.08;86.25;99722.15;2278921;78;20875;-79
2022/11/26 10:33:25;;;;;;;87.33;52.83;;;;;;;5.95;86.76;99724.99;2278421;78;20922;-79
2022/11/26 10:36:25;;;;;;;95.20;58.00;;;;;;;5.90;87.14;99721.31;2278087;78;20998;-79
2022/11/26 10:39:25;;;;;;;93.87;56.73;;;;;;;5.88;87.12;99721.63;2278484;78;20867;-79
2022/11/26 10:42:26;;;;;;;91.83;53.93;;;;;;;5.89;87.29;99720.80;2278639;78;20918;-79
2022/11/26 10:45:26;;;;;;;84.63;54.03;;;;;;;5.96;87.36;99722.88;2278477;78;20990;-79
2022/11/26 10:48:27;;;;;;;93.33;54.77;;;;;;;6.04;87.48;99716.33;2278288;78;20863;-80
2022/11/26 10:51:31;;;;;;;91.93;55.87;;;;;;;6.08;87.34;99713.48;2279036;78;21263;-79
2022/11/26 10:54:27;;;;;;;84.37;51.43;;;;;;;6.16;87.28;99710.41;2278640;78;20907;-79
2022/11/26 10:57:28;;;;;;;92.73;55.67;;;;;;;6.28;87.03;99713.52;2278827;78;20950;-79
2022/11/26 11:00:28;;;;;;;115.13;66.27;;;;;;;6.24;87.10;99721.98;2279361;78;21289;-79
2022/11/26 11:03:29;;;;;;;107.90;67.47;;;;;;;6.18;87.37;99725.62;2278695;78;21297;-81
2022/11/26 11:06:29;;;;;;;108.70;61.47;;;;;;;6.16;87.66;99722.07;2279072;78;20958;-80
2022/11/26 11:09:29;;;;;;;102.87;60.63;;;;;;;6.08;87.84;99724.74;2278603;78;20907;-79
2022/11/26 11:12:30;;;;;;;102.80;57.10;;;;;;;6.05;88.05;99728.05;2278238;78;20914;-79
2022/11/26 11:15:30;;;;;;;106.83;61.37;;;;;;;6.00;88.09;99726.97;2278611;78;20922;-79
2022/11/26 11:18:32;;;;;;;126.53;68.23;;;;;;;5.92;88.16;99730.04;2278966;78;21243;-79
2022/11/26 11:21:32;;;;;;;128.17;72.20;;;;;;;5.81;88.72;99736.41;2278044;78;21017;-79
2022/11/26 11:24:31;;;;;;;131.13;72.63;;;;;;;5.68;88.99;99735.87;2277852;78;20918;-79
2022/11/26 11:27:32;;;;;;;137.67;74.77;;;;;;;5.59;89.43;99743.22;2278277;78;21259;-79
2022/11/26 11:30:32;;;;;;;139.37;76.17;;;;;;;5.54;89.91;99742.53;2277303;78;20911;-79
2022/11/26 11:33:33;;;;;;;125.67;70.30;;;;;;;5.53;90.19;99742.94;2276873;78;20987;-79
2022/11/26 11:36:33;;;;;;;140.37;67.20;;;;;;;5.56;90.45;99746.97;2277406;78;21706;-79
2022/11/26 11:39:34;;;;;;;130.00;66.10;;;;;;;5.56;90.61;99739.60;2277478;78;20939;-79
2022/11/26 11:42:34;;;;;;;131.83;61.53;;;;;;;5.55;90.81;99749.48;2278172;78;20994;-79
2022/11/26 11:45:34;;;;;;;122.57;61.90;;;;;;;5.50;91.05;99742.80;2278563;78;20934;-80
2022/11/26 11:48:35;;;;;;;131.83;61.90;;;;;;;5.48;91.33;99743.14;2278047;78;20938;-79
2022/11/26 11:51:35;;;;;;;125.80;57.70;;;;;;;5.49;91.58;99739.73;2277537;78;20899;-78
2022/11/26 11:54:40;;;;;;;127.00;61.27;;;;;;;5.49;91.78;99736.25;2277826;78;20946;-79
2022/11/26 11:57:38;;;;;;;140.27;63.70;;;;;;;5.52;91.92;99739.88;2256510;78;20887;-79
2022/11/26 12:00:38;;;;;;;144.40;66.53;;;;;;;5.55;92.08;99743.01;2278409;78;20915;-80
2022/11/26 12:03:39;;;;;;;154.10;64.80;;;;;;;5.53;92.21;99745.53;2278877;78;21283;-79
2022/11/26 12:06:39;;;;;;;168.33;66.83;;;;;;;5.52;92.33;99745.45;2278429;78;20961;-80
2022/11/26 12:09:39;;;;;;;195.57;73.33;;;;;;;5.43;92.56;99754.58;2277780;78;20883;-79
2022/11/26 12:12:43;;;;;;;206.30;87.00;;;;;;;5.39;93.00;99749.19;2278903;78;20955;-79
2022/11/26 12:15:41;;;;;;;219.10;87.50;;;;;;;5.32;93.08;99760.07;2278474;78;20965;-80
2022/11/26 12:18:41;;;;;;;228.07;77.07;;;;;;;5.24;93.26;99760.12;2279405;78;20898;-79
2022/11/26 12:21:41;;;;;;;232.93;77.83;;;;;;;5.19;93.59;99765.45;2277454;78;20930;-79
2022/11/26 12:24:42;;;;;;;265.77;78.27;;;;;;;5.16;94.03;99764.01;2275274;78;20962;-79
2022/11/26 12:27:45;;;;;;;231.43;79.60;;;;;;;5.13;94.16;99768.63;2275362;78;20883;-79
2022/11/26 12:30:45;;;;;;;216.60;76.87;;;;;;;5.10;94.25;99767.19;2274964;78;20906;-79
2022/11/26 12:33:46;;;;;;;211.30;75.43;;;;;;;5.07;94.28;99768.34;2274776;78;20911;-80
2022/11/26 12:36:48;;;;;;;216.53;74.23;;;;;;;5.07;94.90;99764.45;2274427;78;20966;-79
2022/11/26 12:39:46;;;;;;;257.97;82.10;;;;;;;5.10;94.79;99763.31;2275259;78;20959;-79
2022/11/26 12:42:47;;;;;;;259.70;83.03;;;;;;;5.12;94.70;99769.04;2275070;78;20915;-79
2022/11/26 12:45:47;;;;;;;243.20;81.57;;;;;;;5.11;94.70;99763.79;2275553;78;20918;-79
2022/11/26 12:48:48;;;;;;;248.63;81.23;;;;;;;5.11;94.99;99762.09;2275929;78;20891;-79
2022/11/26 12:51:51;;;;;;;236.17;79.20;;;;;;;5.17;94.91;99766.67;2276063;78;20891;-79
2022/11/26 12:54:51;;;;;;;254.80;77.07;;;;;;;5.18;95.00;99764.56;2275934;78;20914;-79
2022/11/26 12:57:51;;;;;;;247.23;73.30;;;;;;;5.21;95.26;99766.44;2276030;78;20871;-79
2022/11/26 13:00:53;;;;;;;258.40;73.17;;;;;;;5.11;94.82;99770.26;2276350;78;21263;-79
2022/11/26 13:03:52;;;;;;;293.83;80.33;;;;;;;5.11;94.82;99770.26;2276202;78;20898;-79
2022/11/26 13:06:53;;;;;;;268.17;87.33;;;;;;;5.07;95.03;99775.70;2275248;78;20997;-79
2022/11/26 13:09:53;;;;;;;303.33;90.80;;;;;;;5.01;95.08;99780.58;2275315;78;20958;-79
2022/11/26 13:12:53;;;;;;;301.50;86.13;;;;;;;4.97;95.27;99782.53;2274989;78;20875;-79
2022/11/26 13:15:54;;;;;;;290.83;88.50;;;;;;;4.94;95.36;99782.79;2274982;78;20966;-79
2022/11/26 13:18:54;;;;;;;305.80;83.50;;;;;;;4.91;95.50;99780.05;2275182;78;20899;-79
2022/11/26 13:21:55;;;;;;;255.20;88.40;;;;;;;4.89;95.94;99782.97;2275325;78;20962;-79
2022/11/26 13:24:55;;;;;;;294.87;115.70;;;;;;;4.89;96.04;99779.09;2274975;78;21322;-79
2022/11/26 13:27:56;;;;;;;289.60;108.93;;;;;;;4.92;96.25;99776.25;2275623;78;20895;-79
2022/11/26 13:30:56;;;;;;;224.10;88.60;;;;;;;4.95;96.02;99779.39;2276375;78;20952;-79
2022/11/26 13:33:59;;;;;;;227.73;73.53;;;;;;;4.98;96.27;99779.54;2275842;78;21318;-79
2022/11/26 13:37:00;;;;;;;232.73;79.03;;;;;;;5.00;96.12;99779.20;2276298;78;20970;-80
2022/11/26 13:40:00;;;;;;;239.07;82.90;;;;;;;4.99;95.84;99787.37;2276167;78;21306;-80
2022/11/26 13:43:01;;;;;;;219.97;83.33;;;;;;;4.96;95.93;99789.81;2276117;78;20875;-79
2022/11/26 13:46:01;;;;;;;273.50;97.93;;;;;;;4.92;95.92;99794.36;2276258;78;20890;-80
2022/11/26 13:49:02;;;;;;;213.83;82.70;;;;;;;4.94;96.07;99803.08;2276313;78;20899;-80
2022/11/26 13:52:02;;;;;;;185.67;71.90;;;;;;;4.92;96.03;99795.66;2276159;78;20876;-80
2022/11/26 13:55:02;;;;;;;172.20;65.97;;;;;;;4.96;96.23;99791.11;2275987;78;21182;-80